sensor_id;sensor_type;location;lat;lon;timestamp;pressure;altitude;pressure_sealevel;temperature;humidity
31346;BME280;21711;49.708;18.568;2022-09-27T00:01:00;96108.53;;;7.99;100.00
31346;BME280;21711;49.708;18.568;2022-09-27T00:03:29;96096.44;;;7.98;100.00
31346;BME280;21711;49.708;18.568;2022-09-27T00:06:29;96095.44;;;7.94;100.00
31346;BME280;21711;49.708;18.568;2022-09-27T00:08:58;96095.50;;;7.89;100.00
31346;BME280;21711;49.708;18.568;2022-09-27T00:11:35;96090.22;;;7.89;100.00
31346;BME280;21711;49.708;18.568;2022-09-27T00:14:03;96091.50;;;7.92;100.00
31346;BME280;21711;49.708;18.568;2022-09-27T00:16:36;96080.19;;;7.91;100.00
31346;BME280;21711;49.708;18.568;2022-09-27T00:19:25;96079.13;;;7.92;100.00
31346;BME280;21711;49.708;18.568;2022-09-27T00:21:53;96068.09;;;7.90;100.00
31346;BME280;21711;49.708;18.568;2022-09-27T00:24:21;96062.03;;;7.89;100.00
31346;BME280;21711;49.708;18.568;2022-09-27T00:26:49;96061.63;;;7.82;100.00
31346;BME280;21711;49.708;18.568;2022-09-27T00:29:18;96056.72;;;7.75;100.00
31346;BME280;21711;49.708;18.568;2022-09-27T00:31:46;96054.84;;;7.76;100.00
31346;BME280;21711;49.708;18.568;2022-09-27T00:34:24;96050.09;;;7.78;100.00
31346;BME280;21711;49.708;18.568;2022-09-27T00:36:52;96054.28;;;7.79;100.00
31346;BME280;21711;49.708;18.568;2022-09-27T00:39:20;96048.47;;;8.01;100.00
31346;BME280;21711;49.708;18.568;2022-09-27T00:41:47;96042.19;;;8.16;100.00
31346;BME280;21711;49.708;18.568;2022-09-27T00:49:45;96036.88;;;8.36;100.00
31346;BME280;21711;49.708;18.568;2022-09-27T00:52:28;96040.09;;;8.33;100.00
31346;BME280;21711;49.708;18.568;2022-09-27T00:55:14;96031.97;;;8.29;100.00
31346;BME280;21711;49.708;18.568;2022-09-27T00:57:44;96035.22;;;8.26;100.00
31346;BME280;21711;49.708;18.568;2022-09-27T01:00:13;96026.72;;;8.29;100.00
31346;BME280;21711;49.708;18.568;2022-09-27T01:02:52;96027.06;;;8.41;100.00
31346;BME280;21711;49.708;18.568;2022-09-27T01:05:25;96009.78;;;8.49;100.00
31346;BME280;21711;49.708;18.568;2022-09-27T01:07:53;96016.03;;;8.39;100.00
31346;BME280;21711;49.708;18.568;2022-09-27T01:10:37;96018.88;;;8.24;100.00
31346;BME280;21711;49.708;18.568;2022-09-27T01:13:18;96014.78;;;8.18;100.00
31346;BME280;21711;49.708;18.568;2022-09-27T01:16:13;96009.22;;;8.19;100.00
31346;BME280;21711;49.708;18.568;2022-09-27T01:22:26;95992.16;;;8.16;100.00
31346;BME280;21711;49.708;18.568;2022-09-27T01:25:34;95993.44;;;8.19;100.00
31346;BME280;21711;49.708;18.568;2022-09-27T01:34:04;95976.63;;;8.15;100.00
31346;BME280;21711;49.708;18.568;2022-09-27T01:42:49;95965.88;;;7.78;100.00
31346;BME280;21711;49.708;18.568;2022-09-27T01:45:47;95971.56;;;7.85;100.00
31346;BME280;21711;49.708;18.568;2022-09-27T01:48:41;95971.19;;;7.92;100.00
31346;BME280;21711;49.708;18.568;2022-09-27T01:51:27;95965.94;;;7.92;100.00
31346;BME280;21711;49.708;18.568;2022-09-27T01:54:01;95974.03;;;7.96;100.00
31346;BME280;21711;49.708;18.568;2022-09-27T01:56:52;95967.72;;;7.97;100.00
31346;BME280;21711;49.708;18.568;2022-09-27T01:59:47;95957.94;;;7.97;100.00
31346;BME280;21711;49.708;18.568;2022-09-27T02:02:54;95953.75;;;7.96;100.00
31346;BME280;21711;49.708;18.568;2022-09-27T02:05:49;95957.47;;;7.95;100.00
31346;BME280;21711;49.708;18.568;2022-09-27T02:09:05;95956.09;;;7.98;100.00
31346;BME280;21711;49.708;18.568;2022-09-27T02:12:10;95952.47;;;7.94;100.00
31346;BME280;21711;49.708;18.568;2022-09-27T02:14:55;95950.34;;;7.96;100.00
31346;BME280;21711;49.708;18.568;2022-09-27T02:18:12;95942.75;;;7.94;100.00
31346;BME280;21711;49.708;18.568;2022-09-27T02:20:38;95940.97;;;7.89;100.00
31346;BME280;21711;49.708;18.568;2022-09-27T02:25:50;95933.25;;;7.93;100.00
31346;BME280;21711;49.708;18.568;2022-09-27T02:28:36;95924.59;;;7.93;100.00
31346;BME280;21711;49.708;18.568;2022-09-27T02:31:08;95922.38;;;8.00;100.00
31346;BME280;21711;49.708;18.568;2022-09-27T02:36:12;95929.66;;;7.89;100.00
31346;BME280;21711;49.708;18.568;2022-09-27T02:38:43;95923.88;;;7.87;100.00
31346;BME280;21711;49.708;18.568;2022-09-27T02:41:18;95922.06;;;7.87;100.00
31346;BME280;21711;49.708;18.568;2022-09-27T02:43:52;95930.22;;;7.86;100.00
31346;BME280;21711;49.708;18.568;2022-09-27T02:46:53;95926.41;;;7.78;100.00
31346;BME280;21711;49.708;18.568;2022-09-27T02:53:14;95917.31;;;7.51;100.00
31346;BME280;21711;49.708;18.568;2022-09-27T02:56:14;95913.22;;;7.45;100.00
31346;BME280;21711;49.708;18.568;2022-09-27T03:03:07;95902.91;;;7.82;100.00
31346;BME280;21711;49.708;18.568;2022-09-27T03:05:49;95898.66;;;7.86;100.00
31346;BME280;21711;49.708;18.568;2022-09-27T03:08:18;95894.78;;;7.97;100.00
31346;BME280;21711;49.708;18.568;2022-09-27T03:10:46;95894.66;;;7.88;100.00
31346;BME280;21711;49.708;18.568;2022-09-27T03:13:15;95895.09;;;7.76;100.00
31346;BME280;21711;49.708;18.568;2022-09-27T03:15:44;95893.28;;;7.77;100.00
31346;BME280;21711;49.708;18.568;2022-09-27T03:18:34;95900.38;;;7.76;100.00
31346;BME280;21711;49.708;18.568;2022-09-27T03:21:20;95886.25;;;7.86;100.00
31346;BME280;21711;49.708;18.568;2022-09-27T03:23:47;95878.34;;;7.86;100.00
31346;BME280;21711;49.708;18.568;2022-09-27T03:26:15;95881.41;;;7.94;100.00
31346;BME280;21711;49.708;18.568;2022-09-27T03:28:43;95879.75;;;7.98;100.00
31346;BME280;21711;49.708;18.568;2022-09-27T03:31:10;95883.94;;;7.99;100.00
31346;BME280;21711;49.708;18.568;2022-09-27T03:33:56;95882.78;;;8.05;100.00
31346;BME280;21711;49.708;18.568;2022-09-27T03:36:24;95883.50;;;8.11;100.00
31346;BME280;21711;49.708;18.568;2022-09-27T03:38:51;95884.75;;;7.99;100.00
31346;BME280;21711;49.708;18.568;2022-09-27T03:41:20;95877.31;;;8.01;100.00
31346;BME280;21711;49.708;18.568;2022-09-27T03:43:47;95880.16;;;8.05;100.00
31346;BME280;21711;49.708;18.568;2022-09-27T03:46:15;95875.88;;;8.09;100.00
31346;BME280;21711;49.708;18.568;2022-09-27T03:48:43;95876.66;;;8.10;100.00
31346;BME280;21711;49.708;18.568;2022-09-27T03:51:10;95872.16;;;7.96;100.00
31346;BME280;21711;49.708;18.568;2022-09-27T03:53:39;95870.88;;;7.94;100.00
31346;BME280;21711;49.708;18.568;2022-09-27T03:56:06;95864.16;;;7.87;100.00
31346;BME280;21711;49.708;18.568;2022-09-27T03:58:34;95865.19;;;7.86;100.00
31346;BME280;21711;49.708;18.568;2022-09-27T04:01:02;95863.41;;;8.01;100.00
31346;BME280;21711;49.708;18.568;2022-09-27T04:03:31;95864.97;;;8.16;100.00
31346;BME280;21711;49.708;18.568;2022-09-27T04:06:27;95860.38;;;8.08;100.00
31346;BME280;21711;49.708;18.568;2022-09-27T04:08:56;95858.09;;;7.87;100.00
31346;BME280;21711;49.708;18.568;2022-09-27T04:11:32;95849.22;;;7.83;100.00
31346;BME280;21711;49.708;18.568;2022-09-27T04:13:59;95853.16;;;7.66;100.00
31346;BME280;21711;49.708;18.568;2022-09-27T04:16:26;95845.38;;;7.61;100.00
31346;BME280;21711;49.708;18.568;2022-09-27T04:19:26;95841.94;;;7.60;100.00
31346;BME280;21711;49.708;18.568;2022-09-27T04:22:05;95831.03;;;7.67;100.00
31346;BME280;21711;49.708;18.568;2022-09-27T04:24:32;95842.38;;;7.68;100.00
31346;BME280;21711;49.708;18.568;2022-09-27T04:27:20;95836.41;;;7.62;100.00
31346;BME280;21711;49.708;18.568;2022-09-27T04:29:50;95837.59;;;7.50;100.00
31346;BME280;21711;49.708;18.568;2022-09-27T04:32:44;95833.63;;;7.53;100.00
31346;BME280;21711;49.708;18.568;2022-09-27T04:35:30;95838.81;;;7.58;100.00
31346;BME280;21711;49.708;18.568;2022-09-27T04:38:15;95836.75;;;7.55;100.00
31346;BME280;21711;49.708;18.568;2022-09-27T04:40:45;95839.72;;;7.68;100.00
31346;BME280;21711;49.708;18.568;2022-09-27T04:43:16;95838.50;;;7.60;100.00
31346;BME280;21711;49.708;18.568;2022-09-27T04:45:43;95841.94;;;7.60;100.00
31346;BME280;21711;49.708;18.568;2022-09-27T04:48:11;95838.31;;;7.56;100.00
31346;BME280;21711;49.708;18.568;2022-09-27T04:50:39;95842.03;;;7.55;100.00
31346;BME280;21711;49.708;18.568;2022-09-27T04:53:10;95845.75;;;7.68;100.00
31346;BME280;21711;49.708;18.568;2022-09-27T04:55:43;95843.09;;;7.87;100.00
31346;BME280;21711;49.708;18.568;2022-09-27T04:58:10;95851.50;;;8.03;100.00
31346;BME280;21711;49.708;18.568;2022-09-27T05:00:38;95847.41;;;8.25;100.00
31346;BME280;21711;49.708;18.568;2022-09-27T05:03:25;95840.69;;;8.47;100.00
31346;BME280;21711;49.708;18.568;2022-09-27T05:06:00;95839.94;;;8.61;100.00
31346;BME280;21711;49.708;18.568;2022-09-27T05:08:27;95843.94;;;8.72;100.00
31346;BME280;21711;49.708;18.568;2022-09-27T05:11:30;95841.66;;;8.93;100.00
31346;BME280;21711;49.708;18.568;2022-09-27T05:14:15;95847.84;;;9.12;100.00
31346;BME280;21711;49.708;18.568;2022-09-27T05:16:53;95842.44;;;9.31;100.00
31346;BME280;21711;49.708;18.568;2022-09-27T05:19:40;95845.00;;;9.45;100.00
31346;BME280;21711;49.708;18.568;2022-09-27T05:22:39;95840.25;;;9.33;100.00
31346;BME280;21711;49.708;18.568;2022-09-27T05:25:08;95842.06;;;9.46;100.00
31346;BME280;21711;49.708;18.568;2022-09-27T05:27:35;95838.88;;;9.58;100.00
31346;BME280;21711;49.708;18.568;2022-09-27T05:30:04;95840.81;;;9.67;100.00
31346;BME280;21711;49.708;18.568;2022-09-27T05:32:45;95829.69;;;9.79;100.00
31346;BME280;21711;49.708;18.568;2022-09-27T05:35:25;95830.03;;;9.86;100.00
31346;BME280;21711;49.708;18.568;2022-09-27T05:37:58;95829.03;;;10.05;100.00
31346;BME280;21711;49.708;18.568;2022-09-27T05:40:29;95828.97;;;10.27;100.00
31346;BME280;21711;49.708;18.568;2022-09-27T05:43:09;95819.22;;;10.28;100.00
31346;BME280;21711;49.708;18.568;2022-09-27T05:45:37;95822.16;;;10.26;100.00
31346;BME280;21711;49.708;18.568;2022-09-27T05:48:05;95820.91;;;10.33;100.00
31346;BME280;21711;49.708;18.568;2022-09-27T05:50:41;95808.72;;;10.46;100.00
31346;BME280;21711;49.708;18.568;2022-09-27T05:53:10;95807.50;;;10.61;100.00
31346;BME280;21711;49.708;18.568;2022-09-27T05:55:37;95807.38;;;10.75;100.00
31346;BME280;21711;49.708;18.568;2022-09-27T05:58:07;95809.41;;;10.96;100.00
31346;BME280;21711;49.708;18.568;2022-09-27T06:00:43;95807.25;;;11.07;100.00
31346;BME280;21711;49.708;18.568;2022-09-27T06:03:28;95799.16;;;11.03;100.00
31346;BME280;21711;49.708;18.568;2022-09-27T06:06:16;95810.31;;;11.53;100.00
31346;BME280;21711;49.708;18.568;2022-09-27T06:08:48;95804.03;;;11.75;100.00
31346;BME280;21711;49.708;18.568;2022-09-27T06:11:18;95806.31;;;12.03;100.00
31346;BME280;21711;49.708;18.568;2022-09-27T06:13:48;95807.44;;;11.93;100.00
31346;BME280;21711;49.708;18.568;2022-09-27T06:16:16;95811.22;;;11.75;100.00
31346;BME280;21711;49.708;18.568;2022-09-27T06:18:45;95809.22;;;11.63;100.00
31346;BME280;21711;49.708;18.568;2022-09-27T06:21:13;95812.69;;;11.46;100.00
31346;BME280;21711;49.708;18.568;2022-09-27T06:23:46;95804.00;;;11.10;100.00
31346;BME280;21711;49.708;18.568;2022-09-27T06:26:25;95794.16;;;10.92;100.00
31346;BME280;21711;49.708;18.568;2022-09-27T06:29:13;95800.06;;;11.25;100.00
31346;BME280;21711;49.708;18.568;2022-09-27T06:31:47;95800.38;;;11.41;100.00
31346;BME280;21711;49.708;18.568;2022-09-27T06:34:24;95797.53;;;11.64;100.00
31346;BME280;21711;49.708;18.568;2022-09-27T06:36:52;95802.97;;;11.76;100.00
31346;BME280;21711;49.708;18.568;2022-09-27T06:39:19;95809.72;;;11.56;100.00
31346;BME280;21711;49.708;18.568;2022-09-27T06:42:09;95798.44;;;11.77;100.00
31346;BME280;21711;49.708;18.568;2022-09-27T06:44:53;95796.00;;;12.02;100.00
31346;BME280;21711;49.708;18.568;2022-09-27T06:47:53;95798.34;;;12.03;100.00
31346;BME280;21711;49.708;18.568;2022-09-27T06:50:56;95793.56;;;12.05;100.00
31346;BME280;21711;49.708;18.568;2022-09-27T06:53:24;95792.59;;;12.10;100.00
31346;BME280;21711;49.708;18.568;2022-09-27T06:55:52;95793.38;;;12.10;100.00
31346;BME280;21711;49.708;18.568;2022-09-27T06:58:21;95780.91;;;12.11;100.00
31346;BME280;21711;49.708;18.568;2022-09-27T07:01:28;95780.59;;;12.04;100.00
31346;BME280;21711;49.708;18.568;2022-09-27T07:04:14;95775.59;;;12.11;100.00
31346;BME280;21711;49.708;18.568;2022-09-27T07:06:57;95770.59;;;12.18;100.00
31346;BME280;21711;49.708;18.568;2022-09-27T07:09:30;95770.66;;;12.61;100.00
31346;BME280;21711;49.708;18.568;2022-09-27T07:11:58;95770.69;;;13.04;100.00
31346;BME280;21711;49.708;18.568;2022-09-27T07:14:26;95774.47;;;13.70;100.00
31346;BME280;21711;49.708;18.568;2022-09-27T07:16:54;95777.03;;;13.91;100.00
31346;BME280;21711;49.708;18.568;2022-09-27T07:19:23;95768.81;;;13.84;100.00
31346;BME280;21711;49.708;18.568;2022-09-27T07:21:52;95773.50;;;14.12;100.00
31346;BME280;21711;49.708;18.568;2022-09-27T07:24:19;95774.63;;;14.24;100.00
31346;BME280;21711;49.708;18.568;2022-09-27T07:26:48;95771.97;;;14.24;100.00
31346;BME280;21711;49.708;18.568;2022-09-27T07:29:18;95770.38;;;14.60;100.00
31346;BME280;21711;49.708;18.568;2022-09-27T07:31:47;95786.56;;;14.67;100.00
31346;BME280;21711;49.708;18.568;2022-09-27T07:34:15;95776.13;;;15.16;100.00
31346;BME280;21711;49.708;18.568;2022-09-27T07:36:44;95780.09;;;15.95;100.00
31346;BME280;21711;49.708;18.568;2022-09-27T07:39:12;95774.19;;;16.54;100.00
31346;BME280;21711;49.708;18.568;2022-09-27T07:41:42;95780.56;;;16.49;100.00
31346;BME280;21711;49.708;18.568;2022-09-27T07:44:11;95774.09;;;16.50;100.00
31346;BME280;21711;49.708;18.568;2022-09-27T07:46:54;95772.63;;;16.53;100.00
31346;BME280;21711;49.708;18.568;2022-09-27T07:49:27;95766.38;;;16.81;100.00
31346;BME280;21711;49.708;18.568;2022-09-27T07:52:13;95770.81;;;17.13;100.00
31346;BME280;21711;49.708;18.568;2022-09-27T07:54:49;95770.97;;;17.00;100.00
31346;BME280;21711;49.708;18.568;2022-09-27T07:57:25;95759.59;;;17.23;100.00
31346;BME280;21711;49.708;18.568;2022-09-27T07:59:56;95757.84;;;17.31;100.00
31346;BME280;21711;49.708;18.568;2022-09-27T08:02:23;95759.75;;;17.11;100.00
31346;BME280;21711;49.708;18.568;2022-09-27T08:04:51;95764.22;;;17.06;100.00
31346;BME280;21711;49.708;18.568;2022-09-27T08:07:19;95757.66;;;16.64;100.00
31346;BME280;21711;49.708;18.568;2022-09-27T08:09:50;95757.25;;;16.46;100.00
31346;BME280;21711;49.708;18.568;2022-09-27T08:12:19;95756.00;;;16.60;100.00
31346;BME280;21711;49.708;18.568;2022-09-27T08:14:49;95757.84;;;16.39;100.00
31346;BME280;21711;49.708;18.568;2022-09-27T08:17:17;95746.47;;;16.07;100.00
31346;BME280;21711;49.708;18.568;2022-09-27T08:20:07;95742.78;;;15.95;100.00
31346;BME280;21711;49.708;18.568;2022-09-27T08:22:45;95752.56;;;15.91;100.00
31346;BME280;21711;49.708;18.568;2022-09-27T08:25:31;95750.56;;;15.88;100.00
31346;BME280;21711;49.708;18.568;2022-09-27T08:28:04;95750.22;;;15.89;100.00
31346;BME280;21711;49.708;18.568;2022-09-27T08:30:44;95750.81;;;15.83;100.00
31346;BME280;21711;49.708;18.568;2022-09-27T08:33:12;95755.66;;;16.09;100.00
31346;BME280;21711;49.708;18.568;2022-09-27T08:35:39;95748.59;;;16.17;100.00
31346;BME280;21711;49.708;18.568;2022-09-27T08:38:09;95750.31;;;16.25;100.00
31346;BME280;21711;49.708;18.568;2022-09-27T08:40:56;95748.16;;;16.31;100.00
31346;BME280;21711;49.708;18.568;2022-09-27T08:52:59;95737.50;;;16.31;100.00
31346;BME280;21711;49.708;18.568;2022-09-27T08:55:50;95734.66;;;16.24;100.00
31346;BME280;21711;49.708;18.568;2022-09-27T08:58:40;95728.63;;;16.63;100.00
31346;BME280;21711;49.708;18.568;2022-09-27T09:01:31;95731.38;;;16.66;100.00
31346;BME280;21711;49.708;18.568;2022-09-27T09:04:12;95729.94;;;16.53;100.00
31346;BME280;21711;49.708;18.568;2022-09-27T09:09:54;95726.78;;;16.47;100.00
31346;BME280;21711;49.708;18.568;2022-09-27T09:12:52;95725.63;;;16.28;100.00
31346;BME280;21711;49.708;18.568;2022-09-27T09:15:51;95710.41;;;16.13;100.00
31346;BME280;21711;49.708;18.568;2022-09-27T09:30:03;95691.44;;;15.66;100.00
31346;BME280;21711;49.708;18.568;2022-09-27T09:33:28;95683.53;;;15.70;100.00
31346;BME280;21711;49.708;18.568;2022-09-27T09:39:02;95683.25;;;15.75;100.00
31346;BME280;21711;49.708;18.568;2022-09-27T09:41:40;95680.53;;;15.55;100.00
31346;BME280;21711;49.708;18.568;2022-09-27T09:44:38;95679.81;;;15.58;100.00
31346;BME280;21711;49.708;18.568;2022-09-27T09:47:34;95679.31;;;15.69;100.00
31346;BME280;21711;49.708;18.568;2022-09-27T09:50:19;95675.09;;;16.00;100.00
31346;BME280;21711;49.708;18.568;2022-09-27T09:52:58;95687.56;;;15.96;100.00
31346;BME280;21711;49.708;18.568;2022-09-27T09:55:34;95674.25;;;15.63;100.00
31346;BME280;21711;49.708;18.568;2022-09-27T10:00:50;95669.84;;;15.39;100.00
31346;BME280;21711;49.708;18.568;2022-09-27T10:03:20;95665.47;;;15.31;100.00
31346;BME280;21711;49.708;18.568;2022-09-27T10:05:48;95675.59;;;15.25;100.00
31346;BME280;21711;49.708;18.568;2022-09-27T10:08:21;95665.97;;;15.20;100.00
31346;BME280;21711;49.708;18.568;2022-09-27T10:11:06;95673.59;;;15.06;100.00
31346;BME280;21711;49.708;18.568;2022-09-27T10:13:50;95667.09;;;14.91;100.00
31346;BME280;21711;49.708;18.568;2022-09-27T10:16:19;95669.69;;;14.87;100.00
31346;BME280;21711;49.708;18.568;2022-09-27T10:18:49;95662.81;;;14.73;100.00
31346;BME280;21711;49.708;18.568;2022-09-27T10:21:22;95662.41;;;14.71;100.00
31346;BME280;21711;49.708;18.568;2022-09-27T10:24:12;95659.03;;;14.87;100.00
31346;BME280;21711;49.708;18.568;2022-09-27T10:27:00;95658.59;;;14.85;100.00
31346;BME280;21711;49.708;18.568;2022-09-27T10:29:33;95657.09;;;14.71;100.00
31346;BME280;21711;49.708;18.568;2022-09-27T10:32:21;95659.38;;;14.85;100.00
31346;BME280;21711;49.708;18.568;2022-09-27T10:40:43;95653.78;;;14.62;100.00
31346;BME280;21711;49.708;18.568;2022-09-27T10:43:33;95656.97;;;14.68;100.00
31346;BME280;21711;49.708;18.568;2022-09-27T10:46:29;95650.50;;;14.81;100.00
31346;BME280;21711;49.708;18.568;2022-09-27T10:49:40;95650.59;;;14.85;100.00
31346;BME280;21711;49.708;18.568;2022-09-27T10:52:26;95655.16;;;14.84;100.00
31346;BME280;21711;49.708;18.568;2022-09-27T10:55:24;95655.00;;;14.93;100.00
31346;BME280;21711;49.708;18.568;2022-09-27T10:57:55;95652.13;;;15.15;100.00
31346;BME280;21711;49.708;18.568;2022-09-27T11:00:41;95655.16;;;15.29;100.00
31346;BME280;21711;49.708;18.568;2022-09-27T11:03:15;95658.34;;;15.35;100.00
31346;BME280;21711;49.708;18.568;2022-09-27T11:05:43;95660.16;;;15.47;100.00
31346;BME280;21711;49.708;18.568;2022-09-27T11:08:28;95657.16;;;15.48;100.00
31346;BME280;21711;49.708;18.568;2022-09-27T11:13:40;95659.72;;;15.29;100.00
31346;BME280;21711;49.708;18.568;2022-09-27T11:17:16;95655.13;;;15.13;100.00
31346;BME280;21711;49.708;18.568;2022-09-27T11:26:16;95655.13;;;14.97;100.00
31346;BME280;21711;49.708;18.568;2022-09-27T11:32:17;95663.31;;;14.92;100.00
31346;BME280;21711;49.708;18.568;2022-09-27T11:34:58;95658.16;;;14.83;100.00
31346;BME280;21711;49.708;18.568;2022-09-27T11:40:30;95647.50;;;14.54;100.00
31346;BME280;21711;49.708;18.568;2022-09-27T11:43:34;95649.06;;;14.43;100.00
31346;BME280;21711;49.708;18.568;2022-09-27T11:46:31;95648.75;;;14.44;100.00
31346;BME280;21711;49.708;18.568;2022-09-27T11:49:23;95645.19;;;14.53;100.00
31346;BME280;21711;49.708;18.568;2022-09-27T11:55:19;95639.31;;;14.47;100.00
31346;BME280;21711;49.708;18.568;2022-09-27T11:58:27;95640.09;;;14.48;100.00
31346;BME280;21711;49.708;18.568;2022-09-27T12:09:45;95633.84;;;14.56;100.00
31346;BME280;21711;49.708;18.568;2022-09-27T12:12:21;95635.59;;;14.64;100.00
31346;BME280;21711;49.708;18.568;2022-09-27T12:15:12;95635.97;;;14.50;100.00
31346;BME280;21711;49.708;18.568;2022-09-27T12:17:47;95633.41;;;14.54;100.00
31346;BME280;21711;49.708;18.568;2022-09-27T12:20:30;95633.13;;;14.71;100.00
31346;BME280;21711;49.708;18.568;2022-09-27T12:26:04;95637.75;;;14.75;100.00
31346;BME280;21711;49.708;18.568;2022-09-27T12:28:56;95637.38;;;14.60;100.00
31346;BME280;21711;49.708;18.568;2022-09-27T12:31:40;95641.47;;;14.29;100.00
31346;BME280;21711;49.708;18.568;2022-09-27T12:34:24;95666.88;;;13.64;100.00
31346;BME280;21711;49.708;18.568;2022-09-27T12:37:32;95654.97;;;12.90;100.00
31346;BME280;21711;49.708;18.568;2022-09-27T12:40:12;95657.81;;;12.30;100.00
31346;BME280;21711;49.708;18.568;2022-09-27T12:42:54;95664.53;;;11.97;100.00
31346;BME280;21711;49.708;18.568;2022-09-27T12:52:08;95670.22;;;11.78;100.00
31346;BME280;21711;49.708;18.568;2022-09-27T13:00:57;95667.63;;;12.08;100.00
31346;BME280;21711;49.708;18.568;2022-09-27T13:12:20;95674.53;;;11.91;100.00
31346;BME280;21711;49.708;18.568;2022-09-27T13:29:01;95675.78;;;11.55;100.00
31346;BME280;21711;49.708;18.568;2022-09-27T13:35:26;95684.66;;;11.50;100.00
31346;BME280;21711;49.708;18.568;2022-09-27T13:38:02;95691.88;;;11.41;100.00
31346;BME280;21711;49.708;18.568;2022-09-27T13:40:40;95690.75;;;11.42;100.00
31346;BME280;21711;49.708;18.568;2022-09-27T13:47:02;95696.44;;;11.23;100.00
31346;BME280;21711;49.708;18.568;2022-09-27T13:49:38;95699.25;;;11.17;100.00
31346;BME280;21711;49.708;18.568;2022-09-27T13:52:34;95693.94;;;11.09;100.00
31346;BME280;21711;49.708;18.568;2022-09-27T13:55:40;95696.44;;;11.14;100.00
31346;BME280;21711;49.708;18.568;2022-09-27T14:00:53;95692.41;;;11.08;100.00
31346;BME280;21711;49.708;18.568;2022-09-27T14:03:58;95690.22;;;11.18;100.00
31346;BME280;21711;49.708;18.568;2022-09-27T14:06:34;95693.00;;;11.22;100.00
31346;BME280;21711;49.708;18.568;2022-09-27T14:09:24;95698.91;;;11.19;100.00
31346;BME280;21711;49.708;18.568;2022-09-27T14:12:14;95688.97;;;11.16;100.00
31346;BME280;21711;49.708;18.568;2022-09-27T14:14:47;95695.94;;;11.29;100.00
31346;BME280;21711;49.708;18.568;2022-09-27T14:17:15;95696.09;;;11.33;100.00
31346;BME280;21711;49.708;18.568;2022-09-27T14:19:45;95684.88;;;11.36;100.00
31346;BME280;21711;49.708;18.568;2022-09-27T14:22:16;95688.72;;;11.48;100.00
31346;BME280;21711;49.708;18.568;2022-09-27T14:24:55;95688.38;;;11.58;100.00
31346;BME280;21711;49.708;18.568;2022-09-27T14:27:31;95686.84;;;11.57;100.00
31346;BME280;21711;49.708;18.568;2022-09-27T14:30:19;95680.75;;;11.56;100.00
31346;BME280;21711;49.708;18.568;2022-09-27T14:32:55;95679.34;;;11.59;100.00
31346;BME280;21711;49.708;18.568;2022-09-27T14:35:34;95679.19;;;11.55;100.00
31346;BME280;21711;49.708;18.568;2022-09-27T14:38:28;95680.31;;;11.54;100.00
31346;BME280;21711;49.708;18.568;2022-09-27T14:41:09;95681.66;;;11.61;100.00
31346;BME280;21711;49.708;18.568;2022-09-27T14:43:44;95678.84;;;11.66;100.00
31346;BME280;21711;49.708;18.568;2022-09-27T14:46:28;95674.09;;;11.80;100.00
31346;BME280;21711;49.708;18.568;2022-09-27T14:48:56;95675.63;;;11.90;100.00
31346;BME280;21711;49.708;18.568;2022-09-27T14:51:31;95668.69;;;12.07;100.00
31346;BME280;21711;49.708;18.568;2022-09-27T14:53:59;95676.78;;;12.10;100.00
31346;BME280;21711;49.708;18.568;2022-09-27T14:56:34;95693.66;;;12.06;100.00
31346;BME280;21711;49.708;18.568;2022-09-27T14:59:21;95690.28;;;11.88;100.00
31346;BME280;21711;49.708;18.568;2022-09-27T15:01:53;95691.03;;;11.97;100.00
31346;BME280;21711;49.708;18.568;2022-09-27T15:04:22;95688.50;;;12.09;100.00
31346;BME280;21711;49.708;18.568;2022-09-27T15:06:51;95684.69;;;12.19;100.00
31346;BME280;21711;49.708;18.568;2022-09-27T15:09:19;95693.44;;;12.20;100.00
31346;BME280;21711;49.708;18.568;2022-09-27T15:11:57;95689.38;;;12.14;100.00
31346;BME280;21711;49.708;18.568;2022-09-27T15:14:29;95691.41;;;12.17;100.00
31346;BME280;21711;49.708;18.568;2022-09-27T15:16:59;95686.63;;;12.31;100.00
31346;BME280;21711;49.708;18.568;2022-09-27T15:19:32;95695.19;;;12.37;100.00
31346;BME280;21711;49.708;18.568;2022-09-27T15:22:34;95694.59;;;12.31;100.00
31346;BME280;21711;49.708;18.568;2022-09-27T15:25:41;95698.22;;;12.27;100.00
31346;BME280;21711;49.708;18.568;2022-09-27T15:30:40;95703.09;;;12.16;100.00
31346;BME280;21711;49.708;18.568;2022-09-27T15:33:25;95709.16;;;12.16;100.00
31346;BME280;21711;49.708;18.568;2022-09-27T15:35:57;95700.97;;;12.09;100.00
31346;BME280;21711;49.708;18.568;2022-09-27T15:38:39;95702.97;;;12.12;100.00
31346;BME280;21711;49.708;18.568;2022-09-27T15:41:18;95705.94;;;12.10;100.00
31346;BME280;21711;49.708;18.568;2022-09-27T15:43:51;95699.72;;;12.06;100.00
31346;BME280;21711;49.708;18.568;2022-09-27T15:46:35;95707.69;;;11.97;100.00
31346;BME280;21711;49.708;18.568;2022-09-27T15:51:46;95724.09;;;11.91;100.00
31346;BME280;21711;49.708;18.568;2022-09-27T15:54:20;95714.94;;;11.79;100.00
31346;BME280;21711;49.708;18.568;2022-09-27T15:56:50;95719.97;;;11.72;100.00
31346;BME280;21711;49.708;18.568;2022-09-27T15:59:33;95710.16;;;11.64;100.00
31346;BME280;21711;49.708;18.568;2022-09-27T16:02:15;95704.25;;;11.58;100.00
31346;BME280;21711;49.708;18.568;2022-09-27T16:04:43;95703.50;;;11.49;100.00
31346;BME280;21711;49.708;18.568;2022-09-27T16:07:13;95709.31;;;11.33;100.00
31346;BME280;21711;49.708;18.568;2022-09-27T16:09:41;95714.94;;;11.31;100.00
31346;BME280;21711;49.708;18.568;2022-09-27T16:12:10;95714.47;;;11.21;100.00